createdAt,value
2022-08-23T00:01:46.698Z,100673.06
2022-08-23T00:04:19.658Z,100655.84
2022-08-23T00:06:49.587Z,100672.50
2022-08-23T00:09:19.277Z,100667.38
2022-08-23T00:11:51.636Z,100543.03
2022-08-23T00:14:22.324Z,100683.97
2022-08-23T00:16:51.598Z,100676.63
2022-08-23T00:19:21.584Z,100665.38
2022-08-23T00:21:51.566Z,100637.81
2022-08-23T00:24:20.849Z,100668.09
2022-08-23T00:26:58.548Z,100654.94
2022-08-23T00:29:31.118Z,100647.94
2022-08-23T00:31:59.696Z,100639.75
2022-08-23T00:34:28.420Z,100652.66
2022-08-23T00:36:57.538Z,100649.34
2022-08-23T00:39:26.956Z,100654.94
2022-08-23T00:42:01.480Z,100627.59
2022-08-23T00:44:52.500Z,100657.06
2022-08-23T00:47:44.977Z,100662.66
2022-08-23T00:50:24.439Z,100656.72
2022-08-23T00:53:03.298Z,100655.78
2022-08-23T00:55:32.839Z,100658.66
2022-08-23T00:58:03.436Z,100656.03
2022-08-23T01:00:32.363Z,100654.06
2022-08-23T01:03:02.210Z,100643.59
2022-08-23T01:05:38.966Z,100661.19
2022-08-23T01:08:07.531Z,100659.34
2022-08-23T01:10:42.123Z,100657.84
2022-08-23T01:13:16.178Z,100663.16
2022-08-23T01:15:49.717Z,100586.09
2022-08-23T01:18:22.467Z,100661.66
2022-08-23T01:20:57.025Z,100634.19
2022-08-23T01:23:37.572Z,100668.53
2022-08-23T01:26:07.319Z,100669.84
2022-08-23T01:28:40.896Z,100668.53
2022-08-23T01:31:16.110Z,100664.97
2022-08-23T01:33:47.192Z,100668.31
2022-08-23T01:36:17.422Z,100671.41
2022-08-23T01:38:48.188Z,100675.81
2022-08-23T01:41:16.507Z,100672.47
2022-08-23T01:43:44.913Z,100675.31
2022-08-23T01:46:16.779Z,100674.06
2022-08-23T01:48:46.389Z,100639.38
2022-08-23T01:51:17.727Z,100672.06
2022-08-23T01:53:48.668Z,100670.41
2022-08-23T01:56:19.950Z,100671.47
2022-08-23T01:59:07.451Z,100665.50
2022-08-23T02:01:41.422Z,100664.31
2022-08-23T02:04:10.050Z,100676.19
2022-08-23T02:06:39.009Z,100673.56
2022-08-23T02:09:17.491Z,100674.41
2022-08-23T02:11:48.317Z,100516.44
2022-08-23T02:14:21.312Z,100687.69
2022-08-23T02:17:04.046Z,100690.28
2022-08-23T02:19:38.981Z,100685.16
2022-08-23T02:22:09.109Z,100652.19
2022-08-23T02:24:42.647Z,100683.22
2022-08-23T02:27:11.252Z,100680.94
2022-08-23T02:29:44.623Z,100688.53
2022-08-23T02:32:16.117Z,100630.94
2022-08-23T02:34:45.045Z,100684.09
2022-08-23T02:37:32.723Z,100682.25
2022-08-23T02:40:02.573Z,100680.22
2022-08-23T02:42:31.069Z,100680.66
2022-08-23T02:45:00.489Z,100681.34
2022-08-23T02:47:29.318Z,100678.63
2022-08-23T02:50:11.071Z,100677.66
2022-08-23T02:52:39.424Z,100671.00
2022-08-23T02:55:10.226Z,100669.34
2022-08-23T02:57:40.298Z,100672.38
2022-08-23T03:00:13.207Z,100672.22
2022-08-23T03:02:42.308Z,100669.34
2022-08-23T03:05:12.369Z,100672.09
2022-08-23T03:07:41.517Z,100675.63
2022-08-23T03:10:13.187Z,100678.13
2022-08-23T03:12:47.784Z,100674.09
2022-08-23T03:15:16.346Z,100681.00
2022-08-23T03:17:44.958Z,100681.00
2022-08-23T03:20:13.841Z,100680.63
2022-08-23T03:22:54.428Z,100684.78
2022-08-23T03:25:27.914Z,100686.06
2022-08-23T03:28:35.362Z,100684.03
2022-08-23T03:31:05.227Z,100688.06
2022-08-23T03:33:39.292Z,100679.50
2022-08-23T03:36:10.193Z,100653.41
2022-08-23T03:38:40.030Z,100685.97
2022-08-23T03:41:12.153Z,100686.09
2022-08-23T03:43:40.878Z,100678.66
2022-08-23T03:46:09.877Z,100682.41
2022-08-23T03:48:41.545Z,100677.19
2022-08-23T03:51:10.074Z,100672.59
2022-08-23T03:53:40.373Z,100678.66
2022-08-23T03:56:08.749Z,100670.69
2022-08-23T03:58:38.390Z,100673.19
2022-08-23T04:01:07.769Z,100675.69
2022-08-23T04:03:36.116Z,100685.53
2022-08-23T04:06:06.659Z,100679.19
2022-08-23T04:08:34.936Z,100681.69
2022-08-23T04:11:06.477Z,100671.03
2022-08-23T04:13:36.279Z,100678.53
2022-08-23T04:16:06.785Z,100676.63
2022-08-23T04:18:36.721Z,100685.69
2022-08-23T04:21:11.721Z,100669.84
2022-08-23T04:23:42.328Z,100682.41
2022-08-23T04:26:11.584Z,100685.50
2022-08-23T04:28:40.954Z,100688.09
2022-08-23T04:31:10.804Z,100684.00
2022-08-23T04:33:42.018Z,100688.88
2022-08-23T04:36:13.506Z,100688.97
2022-08-23T04:38:41.970Z,100696.09
2022-08-23T04:41:30.151Z,100693.84
2022-08-23T04:43:59.694Z,100688.44
2022-08-23T04:46:30.844Z,100694.06
2022-08-23T04:49:02.253Z,100696.97
2022-08-23T04:51:30.885Z,100701.16
2022-08-23T04:53:59.433Z,100700.94
2022-08-23T04:56:51.766Z,100702.59
2022-08-23T04:59:22.797Z,100700.31
2022-08-23T05:01:53.460Z,100702.63
2022-08-23T05:04:22.100Z,100702.44
2022-08-23T05:06:52.257Z,100708.09
2022-08-23T05:09:25.157Z,100708.31
2022-08-23T05:11:53.957Z,100711.25
2022-08-23T05:14:24.057Z,100716.88
2022-08-23T05:16:54.084Z,100723.56
2022-08-23T05:19:25.132Z,100720.66
2022-08-23T05:21:56.877Z,100723.81
2022-08-23T05:24:35.249Z,100721.78
2022-08-23T05:27:03.726Z,100724.75
2022-08-23T05:29:32.277Z,100722.03
2022-08-23T05:32:02.707Z,100721.59
2022-08-23T05:34:31.437Z,100719.09
2022-08-23T05:37:03.394Z,100723.03
2022-08-23T05:39:37.635Z,100725.03
2022-08-23T05:42:12.810Z,100693.69
2022-08-23T05:44:42.686Z,100728.25
2022-08-23T05:47:16.366Z,100587.28
2022-08-23T05:49:59.087Z,100731.59
2022-08-23T05:52:30.341Z,100736.34
2022-08-23T05:54:58.740Z,100733.72
2022-08-23T05:57:45.454Z,100728.72
2022-08-23T06:00:15.340Z,100739.56
2022-08-23T06:03:00.729Z,100725.28
2022-08-23T06:05:29.576Z,100733.94
2022-08-23T06:08:00.851Z,100737.22
2022-08-23T06:10:29.303Z,100734.69
2022-08-23T06:13:16.933Z,100737.13
2022-08-23T06:15:45.527Z,100739.97
2022-08-23T06:18:15.332Z,100736.34
2022-08-23T06:20:44.582Z,100732.19
2022-08-23T06:23:19.313Z,100731.59
2022-08-23T06:25:47.676Z,100734.31
2022-08-23T06:28:17.762Z,100729.88
2022-08-23T06:30:47.960Z,100735.75
2022-08-23T06:33:38.668Z,100744.00
2022-08-23T06:36:25.820Z,100733.75
2022-08-23T06:39:15.456Z,100739.88
2022-08-23T06:42:37.140Z,100614.00
2022-08-23T06:45:06.461Z,100739.06
2022-08-23T06:47:40.575Z,100733.22
2022-08-23T06:50:11.976Z,100728.75
2022-08-23T06:52:59.001Z,100728.91
2022-08-23T06:55:36.994Z,100731.94
2022-08-23T06:58:22.731Z,100739.53
2022-08-23T07:01:44.112Z,100736.88
2022-08-23T07:04:20.230Z,100739.00
2022-08-23T07:07:11.857Z,100741.09
2022-08-23T07:09:42.166Z,100728.84
2022-08-23T07:12:11.120Z,100741.00
2022-08-23T07:14:44.251Z,100744.97
2022-08-23T07:17:14.588Z,100740.41
2022-08-23T07:19:44.216Z,100743.06
2022-08-23T07:22:15.613Z,100735.81
2022-08-23T07:24:44.329Z,100738.59
2022-08-23T07:27:12.869Z,100738.03
2022-08-23T07:29:59.901Z,100737.28
2022-08-23T07:32:28.764Z,100741.38
2022-08-23T07:34:58.974Z,100736.75
2022-08-23T07:37:31.013Z,100750.06
2022-08-23T07:40:01.227Z,100751.56
2022-08-23T07:42:29.697Z,100745.88
2022-08-23T07:44:59.422Z,100753.50
2022-08-23T07:47:30.489Z,100758.41
2022-08-23T07:50:00.721Z,100761.84
2022-08-23T07:52:31.892Z,100752.91
2022-08-23T07:55:00.458Z,100760.19
2022-08-23T07:57:55.585Z,100760.56
2022-08-23T08:00:47.674Z,100748.47
2022-08-23T08:03:36.235Z,100756.84
2022-08-23T08:06:36.446Z,100656.16
2022-08-23T08:09:06.949Z,100756.25
2022-08-23T08:11:37.092Z,100713.06
2022-08-23T08:14:08.901Z,100726.31
2022-08-23T08:16:44.369Z,100753.06
2022-08-23T08:19:17.053Z,100726.34
2022-08-23T08:22:05.893Z,100754.19
2022-08-23T08:24:55.513Z,100745.41
2022-08-23T08:27:23.795Z,100753.63
2022-08-23T08:29:52.593Z,100757.47
2022-08-23T08:32:21.360Z,100756.38
2022-08-23T08:34:50.753Z,100760.81
2022-08-23T08:37:19.381Z,100764.13
2022-08-23T08:39:47.829Z,100776.56
2022-08-23T08:42:45.743Z,100781.28
2022-08-23T08:45:21.006Z,100753.09
2022-08-23T08:47:52.511Z,100784.28
2022-08-23T08:50:29.784Z,100771.34
2022-08-23T08:53:08.905Z,100755.59
2022-08-23T08:56:05.528Z,100784.00
2022-08-23T08:58:44.672Z,100647.81
2022-08-23T09:01:14.003Z,100777.84
2022-08-23T09:03:43.063Z,100780.84
2022-08-23T09:06:23.880Z,100752.91
2022-08-23T09:09:10.018Z,100658.66
2022-08-23T09:11:51.610Z,100765.69
2022-08-23T09:14:44.436Z,100764.19
2022-08-23T09:17:22.181Z,100760.81
2022-08-23T09:19:54.136Z,100760.88
2022-08-23T09:22:29.597Z,100733.91
2022-08-23T09:24:59.710Z,100736.16
2022-08-23T09:27:33.506Z,100765.09
2022-08-23T09:30:07.100Z,100758.16
2022-08-23T09:32:37.861Z,100771.97
2022-08-23T09:35:17.347Z,100638.06
2022-08-23T09:38:00.237Z,100761.34
2022-08-23T09:40:38.959Z,100641.31
2022-08-23T09:43:16.558Z,100760.97
2022-08-23T09:45:59.115Z,100739.97
2022-08-23T09:48:40.064Z,100757.91
2022-08-23T09:51:19.888Z,100760.63
2022-08-23T09:53:53.534Z,100731.94
2022-08-23T09:56:26.382Z,100772.44
2022-08-23T09:58:55.834Z,100758.31
2022-08-23T10:01:39.957Z,100759.44
2022-08-23T10:04:17.266Z,100625.03
2022-08-23T10:06:48.112Z,100749.38
2022-08-23T10:09:26.471Z,100747.41
2022-08-23T10:11:55.329Z,100750.16
2022-08-23T10:14:28.727Z,100757.50
2022-08-23T10:17:11.212Z,100748.84
2022-08-23T10:19:49.809Z,100739.38
2022-08-23T10:22:22.199Z,100732.94
2022-08-23T10:25:20.778Z,100710.31
2022-08-23T10:28:20.280Z,100742.72
2022-08-23T10:30:55.635Z,100727.63
2022-08-23T10:33:34.045Z,100721.75
2022-08-23T10:36:13.045Z,100719.31
2022-08-23T10:38:46.908Z,100723.63
2022-08-23T10:41:31.272Z,100721.53
2022-08-23T10:44:10.272Z,100697.19
2022-08-23T10:46:49.784Z,100717.03
2022-08-23T10:49:20.143Z,100708.94
2022-08-23T10:51:51.867Z,100710.31
2022-08-23T10:54:46.051Z,100712.56
2022-08-23T10:57:20.690Z,100684.97
2022-08-23T10:59:53.081Z,100705.69
2022-08-23T11:02:32.844Z,100716.16
2022-08-23T11:05:27.177Z,100599.03
2022-08-23T11:08:01.390Z,100702.91
2022-08-23T11:10:56.158Z,100681.97
2022-08-23T11:13:35.095Z,100678.84
2022-08-23T11:16:13.860Z,100696.00
2022-08-23T11:18:46.408Z,100575.59
2022-08-23T11:21:51.146Z,100704.16
2022-08-23T11:24:48.777Z,100578.84
2022-08-23T11:27:36.865Z,100701.38
2022-08-23T11:30:46.456Z,100703.88
2022-08-23T11:33:21.539Z,100692.91
2022-08-23T11:35:53.474Z,100699.28
2022-08-23T11:38:56.234Z,100693.66
2022-08-23T11:41:30.780Z,100680.44
2022-08-23T11:44:20.895Z,100683.13
2022-08-23T11:47:07.965Z,100675.03
2022-08-23T11:50:01.242Z,100675.06
2022-08-23T11:52:51.666Z,100575.06
2022-08-23T11:55:49.297Z,100677.41
2022-08-23T11:58:24.572Z,100667.53
2022-08-23T12:01:07.749Z,100695.16
2022-08-23T12:03:46.068Z,100654.28
2022-08-23T12:06:31.789Z,100693.75
2022-08-23T12:09:05.304Z,100688.72
2022-08-23T12:12:14.819Z,100683.06
2022-08-23T12:14:57.434Z,100681.66
2022-08-23T12:17:57.521Z,100684.75
2022-08-23T12:20:32.695Z,100603.69
2022-08-23T12:23:13.272Z,100661.88
2022-08-23T12:25:42.787Z,100675.91
2022-08-23T12:28:39.451Z,100685.53
2022-08-23T12:31:18.895Z,100693.66
2022-08-23T12:34:00.208Z,100665.28
2022-08-23T12:36:38.787Z,100663.94
2022-08-23T12:39:15.842Z,100673.00
2022-08-23T12:41:55.752Z,100676.28
2022-08-23T12:44:30.752Z,100584.78
2022-08-23T12:47:14.437Z,100671.56
2022-08-23T12:49:43.142Z,100668.28
2022-08-23T12:52:16.432Z,100666.53
2022-08-23T12:54:47.590Z,100642.75
2022-08-23T12:57:20.668Z,100663.44
2022-08-23T13:00:17.042Z,100630.22
2022-08-23T13:02:56.865Z,100647.69
2022-08-23T13:05:33.990Z,100643.69
2022-08-23T13:08:06.066Z,100650.06
2022-08-23T13:10:35.073Z,100645.94
2022-08-23T13:13:03.616Z,100639.94
2022-08-23T13:15:46.044Z,100629.53
2022-08-23T13:18:34.093Z,100636.94
2022-08-23T13:21:28.042Z,100627.69
2022-08-23T13:24:00.968Z,100637.66
2022-08-23T13:26:42.488Z,100609.41
2022-08-23T13:29:13.890Z,100633.25
2022-08-23T13:31:53.847Z,100594.41
2022-08-23T13:34:39.333Z,100623.16
2022-08-23T13:37:21.675Z,100590.78
2022-08-23T13:39:54.438Z,100622.13
2022-08-23T13:42:48.447Z,100482.19
2022-08-23T13:45:24.737Z,100613.69
2022-08-23T13:47:58.260Z,100606.06
2022-08-23T13:50:30.609Z,100608.94
2022-08-23T13:53:15.812Z,100602.13
2022-08-23T13:55:48.550Z,100598.19
2022-08-23T13:58:27.354Z,100578.88
2022-08-23T14:00:58.519Z,100608.44
2022-08-23T14:03:28.113Z,100604.63
2022-08-23T14:05:57.740Z,100584.06
2022-08-23T14:08:26.095Z,100584.13
2022-08-23T14:10:54.416Z,100610.41
2022-08-23T14:13:25.773Z,100596.34
2022-08-23T14:15:55.897Z,100602.06
2022-08-23T14:18:25.324Z,100599.88
2022-08-23T14:20:53.843Z,100602.34
2022-08-23T14:23:23.676Z,100597.00
2022-08-23T14:25:56.284Z,100597.91
2022-08-23T14:28:29.585Z,100580.22
2022-08-23T14:30:58.451Z,100601.41
2022-08-23T14:33:26.812Z,100598.63
2022-08-23T14:35:56.292Z,100602.53
2022-08-23T14:38:27.026Z,100598.50
2022-08-23T14:40:59.120Z,100600.34
2022-08-23T14:43:28.380Z,100614.41
2022-08-23T14:46:00.948Z,100587.84
2022-08-23T14:48:29.811Z,100601.16
2022-08-23T14:50:58.905Z,100591.09
2022-08-23T14:53:30.686Z,100605.88
2022-08-23T14:56:20.413Z,100601.47
2022-08-23T14:58:48.268Z,100574.16
2022-08-23T15:01:17.345Z,100598.97
2022-08-23T15:03:46.452Z,100602.50
2022-08-23T15:06:16.710Z,100593.16
2022-08-23T15:08:46.971Z,100594.69
2022-08-23T15:14:05.064Z,100591.16
2022-08-23T15:16:33.665Z,100599.25
2022-08-23T15:19:02.193Z,100596.38
2022-08-23T15:21:30.536Z,100597.41
2022-08-23T15:24:00.174Z,100601.75
2022-08-23T15:26:31.337Z,100600.47
2022-08-23T15:29:00.001Z,100592.66
2022-08-23T15:31:29.744Z,100587.63
2022-08-23T15:33:58.199Z,100587.63
2022-08-23T15:36:28.121Z,100592.16
2022-08-23T15:38:56.568Z,100585.59
2022-08-23T15:41:28.205Z,100588.69
2022-08-23T15:43:56.627Z,100580.66
2022-08-23T15:46:26.646Z,100581.19
2022-08-23T15:48:57.865Z,100590.22
2022-08-23T15:51:26.561Z,100584.47
2022-08-23T15:53:55.307Z,100583.03
2022-08-23T15:56:32.849Z,100587.53
2022-08-23T15:59:01.464Z,100578.19
2022-08-23T16:01:34.749Z,100577.66
2022-08-23T16:04:03.256Z,100578.28
2022-08-23T16:06:36.300Z,100576.13
2022-08-23T16:09:06.952Z,100552.88
2022-08-23T16:11:36.753Z,100582.69
2022-08-23T16:14:05.454Z,100578.06
2022-08-23T16:16:39.094Z,100590.28
2022-08-23T16:19:08.941Z,100569.72
2022-08-23T16:21:38.228Z,100583.59
2022-08-23T16:24:09.254Z,100583.47
2022-08-23T16:26:41.841Z,100578.53
2022-08-23T16:29:14.612Z,100581.75
2022-08-23T16:31:43.217Z,100583.47
2022-08-23T16:34:15.543Z,100572.16
2022-08-23T16:36:45.737Z,100579.75
2022-08-23T16:39:17.162Z,100584.53
2022-08-23T16:41:47.045Z,100570.34
2022-08-23T16:44:15.381Z,100576.41
2022-08-23T16:46:44.343Z,100577.81
2022-08-23T16:49:13.520Z,100580.09
2022-08-23T16:51:41.823Z,100584.28
2022-08-23T16:54:10.787Z,100581.59
2022-08-23T16:56:40.984Z,100582.78
2022-08-23T16:59:12.769Z,100463.47
2022-08-23T17:01:47.197Z,100586.28
2022-08-23T17:04:15.831Z,100591.38
2022-08-23T17:06:44.564Z,100593.91
2022-08-23T17:09:13.354Z,100597.03
2022-08-23T17:11:43.799Z,100592.38
2022-08-23T17:14:14.544Z,100591.34
2022-08-23T17:16:44.200Z,100595.84
2022-08-23T17:19:13.814Z,100597.03
2022-08-23T17:21:43.941Z,100592.69
2022-08-23T17:24:12.289Z,100597.16
2022-08-23T17:26:41.041Z,100598.38
2022-08-23T17:29:09.577Z,100602.63
2022-08-23T17:31:40.142Z,100612.09
2022-08-23T17:34:08.653Z,100599.81
2022-08-23T17:36:39.773Z,100603.22
2022-08-23T17:39:11.488Z,100607.69
2022-08-23T17:41:44.986Z,100608.91
2022-08-23T17:44:14.753Z,100613.47
2022-08-23T17:46:46.636Z,100605.19
2022-08-23T17:49:17.425Z,100621.06
2022-08-23T17:51:46.469Z,100615.06
2022-08-23T17:54:16.407Z,100630.38
2022-08-23T17:56:50.399Z,100622.44
2022-08-23T17:59:20.588Z,100625.03
2022-08-23T18:01:50.563Z,100625.34
2022-08-23T18:04:19.277Z,100637.81
2022-08-23T18:06:47.766Z,100643.44
2022-08-23T18:09:16.634Z,100652.63
2022-08-23T18:11:47.413Z,100603.91
2022-08-23T18:14:15.934Z,100599.31
2022-08-23T18:16:45.502Z,100652.19
2022-08-23T18:19:15.589Z,100660.25
2022-08-23T18:21:44.904Z,100665.53
2022-08-23T18:24:13.376Z,100664.75
2022-08-23T18:26:59.002Z,100669.22
2022-08-23T18:29:27.573Z,100673.09
2022-08-23T18:31:55.965Z,100674.25
2022-08-23T18:34:25.797Z,100688.06
2022-08-23T18:36:54.692Z,100692.72
2022-08-23T18:39:31.535Z,100692.44
2022-08-23T18:42:01.555Z,100700.13
2022-08-23T18:44:30.237Z,100711.94
2022-08-23T18:46:59.536Z,100713.81
2022-08-23T18:49:29.941Z,100713.25
2022-08-23T18:51:58.291Z,100724.22
2022-08-23T18:54:28.867Z,100723.91
2022-08-23T18:56:59.201Z,100728.19
2022-08-23T18:59:27.578Z,100729.44
2022-08-23T19:01:56.265Z,100727.41
2022-08-23T19:04:24.734Z,100736.06
2022-08-23T19:06:54.588Z,100744.50
2022-08-23T19:09:23.340Z,100751.63
2022-08-23T19:11:51.626Z,100756.75
2022-08-23T19:14:20.180Z,100753.06
2022-08-23T19:16:48.973Z,100759.53
2022-08-23T19:19:18.843Z,100770.09
2022-08-23T19:21:47.277Z,100771.88
2022-08-23T19:24:17.502Z,100770.56
2022-08-23T19:26:47.721Z,100775.00
2022-08-23T19:29:18.672Z,100779.78
2022-08-23T19:31:48.326Z,100784.53
2022-08-23T19:34:17.691Z,100773.34
2022-08-23T19:36:51.217Z,100750.84
2022-08-23T19:39:26.795Z,100798.88
2022-08-23T19:41:55.338Z,100804.94
2022-08-23T19:44:23.763Z,100805.50
2022-08-23T19:46:52.478Z,100802.75
2022-08-23T19:49:20.749Z,100801.34
2022-08-23T19:51:49.062Z,100804.16
2022-08-23T19:54:17.490Z,100802.41
2022-08-23T19:56:49.701Z,100775.00
2022-08-23T19:59:20.756Z,100821.78
2022-08-23T20:01:50.277Z,100809.16
2022-08-23T20:04:19.385Z,100815.72
2022-08-23T20:06:48.833Z,100813.63
2022-08-23T20:09:18.958Z,100807.88
2022-08-23T20:11:48.907Z,100822.75
2022-08-23T20:14:17.277Z,100819.75
2022-08-23T20:16:45.619Z,100826.03
2022-08-23T20:19:15.308Z,100823.00
2022-08-23T20:21:44.065Z,100830.03
2022-08-23T20:24:12.852Z,100834.59
2022-08-23T20:26:43.148Z,100801.81
2022-08-23T20:29:16.982Z,100834.75
2022-08-23T20:31:50.320Z,100834.16
2022-08-23T20:34:18.714Z,100837.63
2022-08-23T20:36:48.587Z,100828.94
2022-08-23T20:39:21.814Z,100830.91
2022-08-23T20:41:52.999Z,100831.75
2022-08-23T20:44:23.746Z,100836.50
2022-08-23T20:46:54.898Z,100831.63
2022-08-23T20:49:26.276Z,100837.34
2022-08-23T20:51:54.561Z,100832.59
2022-08-23T20:54:23.790Z,100828.91
2022-08-23T20:56:53.522Z,100833.66
2022-08-23T20:59:23.519Z,100825.25
2022-08-23T21:01:52.925Z,100764.56
2022-08-23T21:04:21.997Z,100822.97
2022-08-23T21:06:59.682Z,100826.31
2022-08-23T21:09:29.279Z,100823.44
2022-08-23T21:11:58.447Z,100809.25
2022-08-23T21:14:28.144Z,100823.38
2022-08-23T21:16:56.581Z,100825.97
2022-08-23T21:19:25.859Z,100820.66
2022-08-23T21:21:54.166Z,100819.69
2022-08-23T21:24:22.590Z,100819.91
2022-08-23T21:26:51.498Z,100820.63
2022-08-23T21:29:19.753Z,100822.50
2022-08-23T21:31:49.616Z,100825.94
2022-08-23T21:34:18.489Z,100817.72
2022-08-23T21:36:47.789Z,100822.81
2022-08-23T21:39:16.101Z,100837.63
2022-08-23T21:41:46.190Z,100789.88
2022-08-23T21:44:16.512Z,100790.34
2022-08-23T21:46:45.212Z,100833.69
2022-08-23T21:49:16.263Z,100824.16
2022-08-23T21:51:45.936Z,100828.41
2022-08-23T21:54:15.778Z,100830.41
2022-08-23T21:56:44.349Z,100815.41
2022-08-23T21:59:15.389Z,100783.78
2022-08-23T22:01:44.211Z,100820.16
2022-08-23T22:04:15.462Z,100812.91
2022-08-23T22:06:45.629Z,100821.25
2022-08-23T22:09:16.265Z,100814.63
2022-08-23T22:11:46.632Z,100818.66
2022-08-23T22:14:20.202Z,100828.59
2022-08-23T22:16:49.756Z,100798.88
2022-08-23T22:19:25.371Z,100805.47
2022-08-23T22:21:54.321Z,100810.41
2022-08-23T22:24:25.776Z,100813.84
2022-08-23T22:26:54.663Z,100814.28
2022-08-23T22:29:23.379Z,100810.13
2022-08-23T22:31:51.836Z,100807.41
2022-08-23T22:34:20.183Z,100809.50
2022-08-23T22:36:52.065Z,100807.72
2022-08-23T22:39:21.377Z,100807.38
2022-08-23T22:41:50.259Z,100806.84
2022-08-23T22:44:19.061Z,100813.81
2022-08-23T22:46:48.665Z,100809.25
2022-08-23T22:49:17.323Z,100810.09
2022-08-23T22:51:45.549Z,100804.63
2022-08-23T22:54:15.601Z,100809.53
2022-08-23T22:56:46.477Z,100806.84
2022-08-23T22:59:16.007Z,100814.03
2022-08-23T23:01:46.764Z,100768.75
2022-08-23T23:04:17.741Z,100812.78
2022-08-23T23:06:46.278Z,100808.81
2022-08-23T23:09:16.484Z,100781.88
2022-08-23T23:11:45.677Z,100805.19
2022-08-23T23:14:15.191Z,100801.25
2022-08-23T23:16:46.796Z,100782.47
2022-08-23T23:19:32.742Z,100808.00
2022-08-23T23:22:01.546Z,100805.94
2022-08-23T23:24:34.546Z,100790.91
2022-08-23T23:27:03.698Z,100805.72
2022-08-23T23:29:32.976Z,100805.06
2022-08-23T23:32:01.598Z,100803.63
2022-08-23T23:34:29.877Z,100802.38
2022-08-23T23:36:58.511Z,100801.94
2022-08-23T23:39:27.654Z,100740.63
2022-08-23T23:41:57.640Z,100790.84
2022-08-23T23:44:31.120Z,100795.66
2022-08-23T23:47:01.698Z,100797.59
2022-08-23T23:49:32.871Z,100800.66
2022-08-23T23:52:03.141Z,100796.47
2022-08-23T23:54:31.892Z,100796.03
2022-08-23T23:57:01.624Z,100797.72
2022-08-23T23:59:30.015Z,100793.38
